sensor_id;sensor_type;location;lat;lon;timestamp;P1;durP1;ratioP1;P2;durP2;ratioP2
70303;SDS011;57712;48.752;11.348;2023-09-30T00:00:06;19.45;;;7.63;;
70303;SDS011;57712;48.752;11.348;2023-09-30T00:02:35;20.90;;;7.57;;
70303;SDS011;57712;48.752;11.348;2023-09-30T00:05:02;19.27;;;6.70;;
70303;SDS011;57712;48.752;11.348;2023-09-30T00:07:30;22.08;;;7.07;;
70303;SDS011;57712;48.752;11.348;2023-09-30T00:09:57;20.70;;;6.32;;
70303;SDS011;57712;48.752;11.348;2023-09-30T00:12:24;22.80;;;6.68;;
70303;SDS011;57712;48.752;11.348;2023-09-30T00:14:51;20.07;;;7.40;;
70303;SDS011;57712;48.752;11.348;2023-09-30T00:17:22;19.92;;;7.22;;
70303;SDS011;57712;48.752;11.348;2023-09-30T00:19:49;18.85;;;6.47;;
70303;SDS011;57712;48.752;11.348;2023-09-30T00:22:15;18.38;;;6.47;;
70303;SDS011;57712;48.752;11.348;2023-09-30T00:24:42;17.70;;;6.72;;
70303;SDS011;57712;48.752;11.348;2023-09-30T00:27:09;18.87;;;6.07;;
70303;SDS011;57712;48.752;11.348;2023-09-30T00:29:36;17.73;;;6.07;;
70303;SDS011;57712;48.752;11.348;2023-09-30T00:32:02;22.88;;;7.15;;
70303;SDS011;57712;48.752;11.348;2023-09-30T00:34:33;20.20;;;6.78;;
70303;SDS011;57712;48.752;11.348;2023-09-30T00:37:01;21.20;;;6.30;;
70303;SDS011;57712;48.752;11.348;2023-09-30T00:39:28;19.23;;;6.73;;
70303;SDS011;57712;48.752;11.348;2023-09-30T00:41:57;18.75;;;6.45;;
70303;SDS011;57712;48.752;11.348;2023-09-30T00:44:27;20.52;;;6.68;;
70303;SDS011;57712;48.752;11.348;2023-09-30T00:46:54;17.15;;;5.25;;
70303;SDS011;57712;48.752;11.348;2023-09-30T00:49:25;20.85;;;6.78;;
70303;SDS011;57712;48.752;11.348;2023-09-30T00:51:52;22.60;;;6.07;;
70303;SDS011;57712;48.752;11.348;2023-09-30T00:54:19;16.42;;;5.47;;
70303;SDS011;57712;48.752;11.348;2023-09-30T00:56:48;19.08;;;6.20;;
70303;SDS011;57712;48.752;11.348;2023-09-30T00:59:18;17.33;;;5.80;;
70303;SDS011;57712;48.752;11.348;2023-09-30T01:01:46;16.58;;;6.13;;
70303;SDS011;57712;48.752;11.348;2023-09-30T01:04:14;16.20;;;5.60;;
70303;SDS011;57712;48.752;11.348;2023-09-30T01:06:41;18.75;;;6.13;;
70303;SDS011;57712;48.752;11.348;2023-09-30T01:09:08;17.45;;;5.82;;
70303;SDS011;57712;48.752;11.348;2023-09-30T01:11:35;17.35;;;5.63;;
70303;SDS011;57712;48.752;11.348;2023-09-30T01:14:02;16.20;;;5.00;;
70303;SDS011;57712;48.752;11.348;2023-09-30T01:16:29;16.70;;;5.30;;
70303;SDS011;57712;48.752;11.348;2023-09-30T01:18:56;17.95;;;5.65;;
70303;SDS011;57712;48.752;11.348;2023-09-30T01:21:23;16.30;;;5.63;;
70303;SDS011;57712;48.752;11.348;2023-09-30T01:23:50;17.50;;;5.63;;
70303;SDS011;57712;48.752;11.348;2023-09-30T01:26:16;16.17;;;5.95;;
70303;SDS011;57712;48.752;11.348;2023-09-30T01:28:43;18.20;;;5.37;;
70303;SDS011;57712;48.752;11.348;2023-09-30T01:31:10;15.52;;;4.88;;
70303;SDS011;57712;48.752;11.348;2023-09-30T01:33:37;17.67;;;5.68;;
70303;SDS011;57712;48.752;11.348;2023-09-30T01:36:03;18.70;;;5.15;;
70303;SDS011;57712;48.752;11.348;2023-09-30T01:38:30;15.45;;;5.40;;
70303;SDS011;57712;48.752;11.348;2023-09-30T01:40:57;17.20;;;5.60;;
70303;SDS011;57712;48.752;11.348;2023-09-30T01:43:26;14.93;;;4.78;;
70303;SDS011;57712;48.752;11.348;2023-09-30T01:45:54;16.13;;;5.28;;
70303;SDS011;57712;48.752;11.348;2023-09-30T01:48:20;15.80;;;5.13;;
70303;SDS011;57712;48.752;11.348;2023-09-30T01:50:47;14.82;;;5.05;;
70303;SDS011;57712;48.752;11.348;2023-09-30T01:53:14;13.73;;;5.27;;
70303;SDS011;57712;48.752;11.348;2023-09-30T01:55:41;14.95;;;5.10;;
70303;SDS011;57712;48.752;11.348;2023-09-30T01:58:08;15.88;;;5.55;;
70303;SDS011;57712;48.752;11.348;2023-09-30T02:00:37;15.38;;;4.97;;
70303;SDS011;57712;48.752;11.348;2023-09-30T02:03:04;15.77;;;5.15;;
70303;SDS011;57712;48.752;11.348;2023-09-30T02:05:31;15.80;;;5.10;;
70303;SDS011;57712;48.752;11.348;2023-09-30T02:07:57;14.18;;;4.70;;
70303;SDS011;57712;48.752;11.348;2023-09-30T02:10:24;14.73;;;4.70;;
70303;SDS011;57712;48.752;11.348;2023-09-30T02:12:51;15.05;;;4.90;;
70303;SDS011;57712;48.752;11.348;2023-09-30T02:15:18;13.80;;;4.97;;
70303;SDS011;57712;48.752;11.348;2023-09-30T02:17:45;15.13;;;5.33;;
70303;SDS011;57712;48.752;11.348;2023-09-30T02:20:15;14.90;;;5.53;;
70303;SDS011;57712;48.752;11.348;2023-09-30T02:22:45;16.33;;;5.05;;
70303;SDS011;57712;48.752;11.348;2023-09-30T02:25:13;14.23;;;4.57;;
70303;SDS011;57712;48.752;11.348;2023-09-30T02:27:40;17.55;;;5.30;;
70303;SDS011;57712;48.752;11.348;2023-09-30T02:30:08;15.40;;;5.57;;
70303;SDS011;57712;48.752;11.348;2023-09-30T02:32:40;14.50;;;4.75;;
70303;SDS011;57712;48.752;11.348;2023-09-30T02:35:08;16.23;;;5.40;;
70303;SDS011;57712;48.752;11.348;2023-09-30T02:37:38;14.88;;;4.68;;
70303;SDS011;57712;48.752;11.348;2023-09-30T02:40:05;16.13;;;4.40;;
70303;SDS011;57712;48.752;11.348;2023-09-30T02:42:36;16.40;;;5.03;;
70303;SDS011;57712;48.752;11.348;2023-09-30T02:45:04;17.02;;;5.30;;
70303;SDS011;57712;48.752;11.348;2023-09-30T02:47:32;15.63;;;4.85;;
70303;SDS011;57712;48.752;11.348;2023-09-30T02:49:59;13.48;;;4.55;;
70303;SDS011;57712;48.752;11.348;2023-09-30T02:52:27;14.95;;;4.95;;
70303;SDS011;57712;48.752;11.348;2023-09-30T02:54:55;17.13;;;5.20;;
70303;SDS011;57712;48.752;11.348;2023-09-30T02:57:23;15.93;;;5.32;;
70303;SDS011;57712;48.752;11.348;2023-09-30T02:59:51;16.25;;;5.68;;
70303;SDS011;57712;48.752;11.348;2023-09-30T03:02:21;15.43;;;4.72;;
70303;SDS011;57712;48.752;11.348;2023-09-30T03:04:49;16.73;;;5.65;;
70303;SDS011;57712;48.752;11.348;2023-09-30T03:07:20;15.30;;;5.20;;
70303;SDS011;57712;48.752;11.348;2023-09-30T03:09:47;16.65;;;4.70;;
70303;SDS011;57712;48.752;11.348;2023-09-30T03:12:14;14.75;;;5.07;;
70303;SDS011;57712;48.752;11.348;2023-09-30T03:14:41;14.98;;;5.35;;
70303;SDS011;57712;48.752;11.348;2023-09-30T03:17:09;14.55;;;4.47;;
70303;SDS011;57712;48.752;11.348;2023-09-30T03:19:38;13.40;;;4.80;;
70303;SDS011;57712;48.752;11.348;2023-09-30T03:22:05;16.25;;;4.32;;
70303;SDS011;57712;48.752;11.348;2023-09-30T03:24:38;13.10;;;4.88;;
70303;SDS011;57712;48.752;11.348;2023-09-30T03:27:06;15.20;;;4.72;;
70303;SDS011;57712;48.752;11.348;2023-09-30T03:29:37;16.08;;;5.47;;
70303;SDS011;57712;48.752;11.348;2023-09-30T03:32:05;16.57;;;5.03;;
70303;SDS011;57712;48.752;11.348;2023-09-30T03:34:33;15.48;;;4.78;;
70303;SDS011;57712;48.752;11.348;2023-09-30T03:37:03;13.07;;;4.53;;
70303;SDS011;57712;48.752;11.348;2023-09-30T03:39:33;15.38;;;4.90;;
70303;SDS011;57712;48.752;11.348;2023-09-30T03:42:00;16.92;;;5.70;;
70303;SDS011;57712;48.752;11.348;2023-09-30T03:44:28;15.20;;;5.03;;
70303;SDS011;57712;48.752;11.348;2023-09-30T03:46:55;13.60;;;4.32;;
70303;SDS011;57712;48.752;11.348;2023-09-30T03:49:23;15.32;;;5.15;;
70303;SDS011;57712;48.752;11.348;2023-09-30T03:51:51;16.77;;;4.72;;
70303;SDS011;57712;48.752;11.348;2023-09-30T03:54:20;15.10;;;4.82;;
70303;SDS011;57712;48.752;11.348;2023-09-30T03:56:47;13.97;;;4.63;;
70303;SDS011;57712;48.752;11.348;2023-09-30T03:59:14;14.07;;;4.68;;
70303;SDS011;57712;48.752;11.348;2023-09-30T04:01:42;13.27;;;5.15;;
70303;SDS011;57712;48.752;11.348;2023-09-30T04:04:09;14.88;;;4.68;;
70303;SDS011;57712;48.752;11.348;2023-09-30T04:06:36;16.85;;;5.10;;
70303;SDS011;57712;48.752;11.348;2023-09-30T04:09:08;13.30;;;4.43;;
70303;SDS011;57712;48.752;11.348;2023-09-30T04:11:38;13.18;;;4.28;;
70303;SDS011;57712;48.752;11.348;2023-09-30T04:14:06;15.55;;;5.00;;
70303;SDS011;57712;48.752;11.348;2023-09-30T04:16:34;16.35;;;5.30;;
70303;SDS011;57712;48.752;11.348;2023-09-30T04:19:02;12.55;;;4.78;;
70303;SDS011;57712;48.752;11.348;2023-09-30T04:21:29;17.87;;;5.50;;
70303;SDS011;57712;48.752;11.348;2023-09-30T04:24:00;14.75;;;5.40;;
70303;SDS011;57712;48.752;11.348;2023-09-30T04:26:27;13.10;;;4.75;;
70303;SDS011;57712;48.752;11.348;2023-09-30T04:28:56;13.65;;;4.30;;
70303;SDS011;57712;48.752;11.348;2023-09-30T04:31:23;15.65;;;5.10;;
70303;SDS011;57712;48.752;11.348;2023-09-30T04:33:50;14.70;;;4.50;;
70303;SDS011;57712;48.752;11.348;2023-09-30T04:36:20;13.88;;;4.88;;
70303;SDS011;57712;48.752;11.348;2023-09-30T04:38:48;15.13;;;4.93;;
70303;SDS011;57712;48.752;11.348;2023-09-30T04:41:14;12.05;;;3.70;;
70303;SDS011;57712;48.752;11.348;2023-09-30T04:43:42;13.32;;;4.53;;
70303;SDS011;57712;48.752;11.348;2023-09-30T04:46:10;17.17;;;6.37;;
70303;SDS011;57712;48.752;11.348;2023-09-30T04:48:40;15.38;;;4.75;;
70303;SDS011;57712;48.752;11.348;2023-09-30T04:51:07;15.93;;;4.85;;
70303;SDS011;57712;48.752;11.348;2023-09-30T04:53:40;13.20;;;4.70;;
70303;SDS011;57712;48.752;11.348;2023-09-30T04:56:08;15.07;;;4.97;;
70303;SDS011;57712;48.752;11.348;2023-09-30T04:58:34;15.87;;;5.53;;
70303;SDS011;57712;48.752;11.348;2023-09-30T05:01:01;14.35;;;4.88;;
70303;SDS011;57712;48.752;11.348;2023-09-30T05:03:28;15.85;;;5.13;;
70303;SDS011;57712;48.752;11.348;2023-09-30T05:05:55;14.00;;;5.05;;
70303;SDS011;57712;48.752;11.348;2023-09-30T05:08:25;14.65;;;5.00;;
70303;SDS011;57712;48.752;11.348;2023-09-30T05:10:52;13.73;;;4.57;;
70303;SDS011;57712;48.752;11.348;2023-09-30T05:13:25;14.02;;;5.05;;
70303;SDS011;57712;48.752;11.348;2023-09-30T05:15:51;13.65;;;4.78;;
70303;SDS011;57712;48.752;11.348;2023-09-30T05:18:19;13.27;;;4.60;;
70303;SDS011;57712;48.752;11.348;2023-09-30T05:20:45;14.60;;;4.93;;
70303;SDS011;57712;48.752;11.348;2023-09-30T05:23:12;15.50;;;4.47;;
70303;SDS011;57712;48.752;11.348;2023-09-30T05:25:41;13.05;;;4.80;;
70303;SDS011;57712;48.752;11.348;2023-09-30T05:28:09;13.70;;;4.82;;
70303;SDS011;57712;48.752;11.348;2023-09-30T05:30:38;16.05;;;4.85;;
70303;SDS011;57712;48.752;11.348;2023-09-30T05:33:06;13.63;;;4.72;;
70303;SDS011;57712;48.752;11.348;2023-09-30T05:35:33;15.10;;;4.60;;
70303;SDS011;57712;48.752;11.348;2023-09-30T05:38:00;16.83;;;4.90;;
70303;SDS011;57712;48.752;11.348;2023-09-30T05:40:27;13.90;;;4.75;;
70303;SDS011;57712;48.752;11.348;2023-09-30T05:42:57;13.75;;;4.88;;
70303;SDS011;57712;48.752;11.348;2023-09-30T05:45:32;12.77;;;4.75;;
70303;SDS011;57712;48.752;11.348;2023-09-30T05:48:02;14.03;;;4.40;;
70303;SDS011;57712;48.752;11.348;2023-09-30T05:50:32;15.70;;;5.20;;
70303;SDS011;57712;48.752;11.348;2023-09-30T05:53:00;14.40;;;5.57;;
70303;SDS011;57712;48.752;11.348;2023-09-30T05:55:27;14.05;;;5.10;;
70303;SDS011;57712;48.752;11.348;2023-09-30T05:57:54;17.90;;;5.03;;
70303;SDS011;57712;48.752;11.348;2023-09-30T06:00:22;14.27;;;4.57;;
70303;SDS011;57712;48.752;11.348;2023-09-30T06:02:51;13.25;;;4.50;;
70303;SDS011;57712;48.752;11.348;2023-09-30T06:05:18;12.40;;;4.25;;
70303;SDS011;57712;48.752;11.348;2023-09-30T06:07:46;12.63;;;4.40;;
70303;SDS011;57712;48.752;11.348;2023-09-30T06:10:13;13.70;;;4.93;;
70303;SDS011;57712;48.752;11.348;2023-09-30T06:12:48;14.23;;;4.93;;
70303;SDS011;57712;48.752;11.348;2023-09-30T06:15:16;12.05;;;4.65;;
70303;SDS011;57712;48.752;11.348;2023-09-30T06:17:49;11.60;;;4.32;;
70303;SDS011;57712;48.752;11.348;2023-09-30T06:20:16;12.50;;;4.45;;
70303;SDS011;57712;48.752;11.348;2023-09-30T06:22:44;13.77;;;4.32;;
70303;SDS011;57712;48.752;11.348;2023-09-30T06:25:12;12.60;;;4.73;;
70303;SDS011;57712;48.752;11.348;2023-09-30T06:27:40;15.85;;;4.70;;
70303;SDS011;57712;48.752;11.348;2023-09-30T06:30:06;14.45;;;4.43;;
70303;SDS011;57712;48.752;11.348;2023-09-30T06:32:35;13.70;;;5.18;;
70303;SDS011;57712;48.752;11.348;2023-09-30T06:35:02;12.57;;;4.63;;
70303;SDS011;57712;48.752;11.348;2023-09-30T06:37:30;12.80;;;4.83;;
70303;SDS011;57712;48.752;11.348;2023-09-30T06:39:57;14.10;;;4.15;;
70303;SDS011;57712;48.752;11.348;2023-09-30T06:42:24;12.70;;;4.15;;
70303;SDS011;57712;48.752;11.348;2023-09-30T06:44:52;9.15;;;3.22;;
70303;SDS011;57712;48.752;11.348;2023-09-30T06:47:19;11.50;;;3.88;;
70303;SDS011;57712;48.752;11.348;2023-09-30T06:49:47;15.67;;;3.83;;
70303;SDS011;57712;48.752;11.348;2023-09-30T06:52:14;11.48;;;3.38;;
70303;SDS011;57712;48.752;11.348;2023-09-30T06:54:41;10.20;;;3.70;;
70303;SDS011;57712;48.752;11.348;2023-09-30T06:57:07;9.35;;;2.60;;
70303;SDS011;57712;48.752;11.348;2023-09-30T06:59:36;9.30;;;2.72;;
70303;SDS011;57712;48.752;11.348;2023-09-30T07:02:03;9.10;;;2.13;;
70303;SDS011;57712;48.752;11.348;2023-09-30T07:04:30;6.53;;;2.08;;
70303;SDS011;57712;48.752;11.348;2023-09-30T07:06:57;7.55;;;1.20;;
70303;SDS011;57712;48.752;11.348;2023-09-30T07:09:24;4.85;;;0.77;;
70303;SDS011;57712;48.752;11.348;2023-09-30T07:11:50;4.72;;;1.00;;
70303;SDS011;57712;48.752;11.348;2023-09-30T07:14:18;3.67;;;0.60;;
70303;SDS011;57712;48.752;11.348;2023-09-30T07:16:45;3.20;;;0.57;;
70303;SDS011;57712;48.752;11.348;2023-09-30T07:19:12;4.10;;;0.80;;
70303;SDS011;57712;48.752;11.348;2023-09-30T07:21:38;4.43;;;0.65;;
70303;SDS011;57712;48.752;11.348;2023-09-30T07:24:05;3.53;;;0.80;;
70303;SDS011;57712;48.752;11.348;2023-09-30T07:26:32;4.43;;;0.87;;
70303;SDS011;57712;48.752;11.348;2023-09-30T07:28:59;4.70;;;0.68;;
70303;SDS011;57712;48.752;11.348;2023-09-30T07:31:26;4.30;;;0.68;;
70303;SDS011;57712;48.752;11.348;2023-09-30T07:33:52;4.47;;;0.70;;
70303;SDS011;57712;48.752;11.348;2023-09-30T07:36:20;3.75;;;0.70;;
70303;SDS011;57712;48.752;11.348;2023-09-30T07:38:46;3.23;;;0.60;;
70303;SDS011;57712;48.752;11.348;2023-09-30T07:41:13;4.05;;;0.80;;
70303;SDS011;57712;48.752;11.348;2023-09-30T07:43:40;4.68;;;1.02;;
70303;SDS011;57712;48.752;11.348;2023-09-30T07:46:07;4.68;;;0.50;;
70303;SDS011;57712;48.752;11.348;2023-09-30T07:48:34;5.07;;;1.00;;
70303;SDS011;57712;48.752;11.348;2023-09-30T07:51:02;5.13;;;0.63;;
70303;SDS011;57712;48.752;11.348;2023-09-30T07:53:28;3.50;;;0.73;;
70303;SDS011;57712;48.752;11.348;2023-09-30T07:55:55;3.60;;;0.52;;
70303;SDS011;57712;48.752;11.348;2023-09-30T07:58:22;4.38;;;1.00;;
70303;SDS011;57712;48.752;11.348;2023-09-30T08:00:49;3.15;;;0.50;;
70303;SDS011;57712;48.752;11.348;2023-09-30T08:03:17;3.60;;;0.57;;
70303;SDS011;57712;48.752;11.348;2023-09-30T08:05:44;3.47;;;0.70;;
70303;SDS011;57712;48.752;11.348;2023-09-30T08:08:12;3.17;;;0.60;;
70303;SDS011;57712;48.752;11.348;2023-09-30T08:10:42;3.50;;;0.93;;
70303;SDS011;57712;48.752;11.348;2023-09-30T08:13:09;3.80;;;0.38;;
70303;SDS011;57712;48.752;11.348;2023-09-30T08:15:36;4.30;;;0.40;;
70303;SDS011;57712;48.752;11.348;2023-09-30T08:18:03;4.38;;;0.50;;
70303;SDS011;57712;48.752;11.348;2023-09-30T08:20:32;3.75;;;0.60;;
70303;SDS011;57712;48.752;11.348;2023-09-30T08:22:59;3.92;;;0.68;;
70303;SDS011;57712;48.752;11.348;2023-09-30T08:25:26;6.45;;;1.40;;
70303;SDS011;57712;48.752;11.348;2023-09-30T08:27:53;3.57;;;0.70;;
70303;SDS011;57712;48.752;11.348;2023-09-30T08:30:21;4.47;;;0.82;;
70303;SDS011;57712;48.752;11.348;2023-09-30T08:32:48;5.00;;;1.38;;
70303;SDS011;57712;48.752;11.348;2023-09-30T08:35:14;3.25;;;0.50;;
70303;SDS011;57712;48.752;11.348;2023-09-30T08:37:41;3.53;;;0.70;;
70303;SDS011;57712;48.752;11.348;2023-09-30T08:40:08;3.20;;;0.53;;
70303;SDS011;57712;48.752;11.348;2023-09-30T08:42:39;3.03;;;0.52;;
70303;SDS011;57712;48.752;11.348;2023-09-30T08:45:08;2.90;;;0.50;;
70303;SDS011;57712;48.752;11.348;2023-09-30T08:47:38;4.18;;;0.77;;
70303;SDS011;57712;48.752;11.348;2023-09-30T08:50:07;3.33;;;0.70;;
70303;SDS011;57712;48.752;11.348;2023-09-30T08:52:40;3.63;;;0.60;;
70303;SDS011;57712;48.752;11.348;2023-09-30T08:55:08;3.20;;;0.40;;
70303;SDS011;57712;48.752;11.348;2023-09-30T08:57:39;3.35;;;0.60;;
70303;SDS011;57712;48.752;11.348;2023-09-30T09:00:08;4.65;;;0.88;;
70303;SDS011;57712;48.752;11.348;2023-09-30T09:02:40;3.85;;;0.90;;
70303;SDS011;57712;48.752;11.348;2023-09-30T09:05:07;4.03;;;0.73;;
70303;SDS011;57712;48.752;11.348;2023-09-30T09:07:35;4.53;;;0.93;;
70303;SDS011;57712;48.752;11.348;2023-09-30T09:10:06;4.60;;;1.05;;
70303;SDS011;57712;48.752;11.348;2023-09-30T09:12:35;4.13;;;1.10;;
70303;SDS011;57712;48.752;11.348;2023-09-30T09:15:04;4.80;;;1.15;;
70303;SDS011;57712;48.752;11.348;2023-09-30T09:17:44;4.00;;;0.83;;
70303;SDS011;57712;48.752;11.348;2023-09-30T09:20:12;4.55;;;1.08;;
70303;SDS011;57712;48.752;11.348;2023-09-30T09:22:47;5.40;;;1.63;;
70303;SDS011;57712;48.752;11.348;2023-09-30T09:25:17;5.40;;;1.02;;
70303;SDS011;57712;48.752;11.348;2023-09-30T09:27:44;5.22;;;1.48;;
70303;SDS011;57712;48.752;11.348;2023-09-30T09:30:14;5.30;;;1.50;;
70303;SDS011;57712;48.752;11.348;2023-09-30T09:33:00;4.70;;;1.13;;
70303;SDS011;57712;48.752;11.348;2023-09-30T09:35:29;4.75;;;1.35;;
70303;SDS011;57712;48.752;11.348;2023-09-30T09:38:00;5.68;;;1.40;;
70303;SDS011;57712;48.752;11.348;2023-09-30T09:40:29;5.90;;;1.80;;
70303;SDS011;57712;48.752;11.348;2023-09-30T09:43:00;5.30;;;1.40;;
70303;SDS011;57712;48.752;11.348;2023-09-30T09:45:35;6.07;;;1.58;;
70303;SDS011;57712;48.752;11.348;2023-09-30T09:48:04;5.50;;;1.45;;
70303;SDS011;57712;48.752;11.348;2023-09-30T09:50:32;5.38;;;1.65;;
70303;SDS011;57712;48.752;11.348;2023-09-30T09:53:00;6.40;;;1.92;;
70303;SDS011;57712;48.752;11.348;2023-09-30T09:55:27;5.00;;;1.47;;
70303;SDS011;57712;48.752;11.348;2023-09-30T09:57:54;6.47;;;1.73;;
70303;SDS011;57712;48.752;11.348;2023-09-30T10:00:24;6.68;;;2.05;;
70303;SDS011;57712;48.752;11.348;2023-09-30T10:02:55;6.07;;;1.67;;
70303;SDS011;57712;48.752;11.348;2023-09-30T10:05:23;5.20;;;1.55;;
70303;SDS011;57712;48.752;11.348;2023-09-30T10:08:04;6.70;;;1.90;;
70303;SDS011;57712;48.752;11.348;2023-09-30T10:10:36;5.45;;;1.70;;
70303;SDS011;57712;48.752;11.348;2023-09-30T10:13:04;6.85;;;1.90;;
70303;SDS011;57712;48.752;11.348;2023-09-30T10:18:04;5.68;;;2.03;;
70303;SDS011;57712;48.752;11.348;2023-09-30T10:20:42;6.90;;;1.90;;
70303;SDS011;57712;48.752;11.348;2023-09-30T10:25:48;7.50;;;2.08;;
70303;SDS011;57712;48.752;11.348;2023-09-30T10:31:11;6.20;;;2.45;;
70303;SDS011;57712;48.752;11.348;2023-09-30T10:36:28;7.78;;;2.50;;
70303;SDS011;57712;48.752;11.348;2023-09-30T10:38:55;6.00;;;2.10;;
70303;SDS011;57712;48.752;11.348;2023-09-30T10:46:49;7.30;;;2.27;;
70303;SDS011;57712;48.752;11.348;2023-09-30T10:51:56;11.80;;;4.65;;
70303;SDS011;57712;48.752;11.348;2023-09-30T10:54:24;12.43;;;3.70;;
70303;SDS011;57712;48.752;11.348;2023-09-30T10:56:52;7.50;;;2.60;;
70303;SDS011;57712;48.752;11.348;2023-09-30T10:59:20;7.13;;;2.10;;
70303;SDS011;57712;48.752;11.348;2023-09-30T11:01:52;9.65;;;2.70;;
70303;SDS011;57712;48.752;11.348;2023-09-30T11:04:22;10.88;;;3.50;;
70303;SDS011;57712;48.752;11.348;2023-09-30T11:06:49;6.97;;;2.25;;
70303;SDS011;57712;48.752;11.348;2023-09-30T11:09:18;7.95;;;2.55;;
70303;SDS011;57712;48.752;11.348;2023-09-30T11:11:48;7.53;;;2.70;;
70303;SDS011;57712;48.752;11.348;2023-09-30T11:14:27;9.13;;;2.78;;
70303;SDS011;57712;48.752;11.348;2023-09-30T11:17:01;7.40;;;2.70;;
70303;SDS011;57712;48.752;11.348;2023-09-30T11:19:34;7.82;;;2.47;;
70303;SDS011;57712;48.752;11.348;2023-09-30T11:22:03;8.77;;;3.03;;
70303;SDS011;57712;48.752;11.348;2023-09-30T11:24:34;6.37;;;2.20;;
70303;SDS011;57712;48.752;11.348;2023-09-30T11:27:02;7.60;;;2.53;;
70303;SDS011;57712;48.752;11.348;2023-09-30T11:29:30;7.85;;;2.92;;
70303;SDS011;57712;48.752;11.348;2023-09-30T11:31:57;7.57;;;2.83;;
70303;SDS011;57712;48.752;11.348;2023-09-30T11:34:34;9.25;;;3.30;;
70303;SDS011;57712;48.752;11.348;2023-09-30T11:37:05;7.30;;;3.30;;
70303;SDS011;57712;48.752;11.348;2023-09-30T11:39:36;9.10;;;2.70;;
70303;SDS011;57712;48.752;11.348;2023-09-30T11:42:12;7.03;;;2.80;;
70303;SDS011;57712;48.752;11.348;2023-09-30T11:44:44;8.23;;;2.90;;
70303;SDS011;57712;48.752;11.348;2023-09-30T11:47:13;7.90;;;2.90;;
70303;SDS011;57712;48.752;11.348;2023-09-30T11:49:42;8.83;;;3.30;;
70303;SDS011;57712;48.752;11.348;2023-09-30T11:52:14;9.18;;;3.13;;
70303;SDS011;57712;48.752;11.348;2023-09-30T11:54:44;8.15;;;3.15;;
70303;SDS011;57712;48.752;11.348;2023-09-30T11:57:12;11.75;;;3.70;;
70303;SDS011;57712;48.752;11.348;2023-09-30T11:59:44;9.18;;;3.45;;
70303;SDS011;57712;48.752;11.348;2023-09-30T12:02:12;8.83;;;2.73;;
70303;SDS011;57712;48.752;11.348;2023-09-30T12:04:44;10.48;;;3.30;;
70303;SDS011;57712;48.752;11.348;2023-09-30T12:07:14;8.95;;;3.38;;
70303;SDS011;57712;48.752;11.348;2023-09-30T12:09:41;9.07;;;3.30;;
70303;SDS011;57712;48.752;11.348;2023-09-30T12:12:09;8.80;;;2.78;;
70303;SDS011;57712;48.752;11.348;2023-09-30T12:14:38;9.90;;;2.70;;
70303;SDS011;57712;48.752;11.348;2023-09-30T12:17:05;8.75;;;2.78;;
70303;SDS011;57712;48.752;11.348;2023-09-30T12:19:32;8.82;;;3.35;;
70303;SDS011;57712;48.752;11.348;2023-09-30T12:21:59;9.27;;;2.90;;
70303;SDS011;57712;48.752;11.348;2023-09-30T12:24:25;18.83;;;3.50;;
70303;SDS011;57712;48.752;11.348;2023-09-30T12:26:53;8.00;;;3.00;;
70303;SDS011;57712;48.752;11.348;2023-09-30T12:29:23;17.10;;;4.68;;
70303;SDS011;57712;48.752;11.348;2023-09-30T12:31:51;18.35;;;5.28;;
70303;SDS011;57712;48.752;11.348;2023-09-30T12:34:20;10.10;;;3.50;;
70303;SDS011;57712;48.752;11.348;2023-09-30T12:36:50;187.45;;;24.83;;
70303;SDS011;57712;48.752;11.348;2023-09-30T12:39:17;25.30;;;5.67;;
70303;SDS011;57712;48.752;11.348;2023-09-30T12:41:51;10.48;;;3.47;;
70303;SDS011;57712;48.752;11.348;2023-09-30T12:44:18;9.27;;;3.08;;
70303;SDS011;57712;48.752;11.348;2023-09-30T12:46:45;9.15;;;3.50;;
70303;SDS011;57712;48.752;11.348;2023-09-30T12:49:13;11.55;;;3.65;;
70303;SDS011;57712;48.752;11.348;2023-09-30T12:51:40;10.27;;;3.40;;
70303;SDS011;57712;48.752;11.348;2023-09-30T12:54:08;9.45;;;3.67;;
70303;SDS011;57712;48.752;11.348;2023-09-30T12:56:37;115.68;;;14.90;;
70303;SDS011;57712;48.752;11.348;2023-09-30T12:59:04;20.85;;;4.13;;
70303;SDS011;57712;48.752;11.348;2023-09-30T13:01:31;12.13;;;4.30;;
70303;SDS011;57712;48.752;11.348;2023-09-30T13:04:01;24.70;;;5.37;;
70303;SDS011;57712;48.752;11.348;2023-09-30T13:06:28;30.20;;;8.00;;
70303;SDS011;57712;48.752;11.348;2023-09-30T13:08:56;13.98;;;4.40;;
70303;SDS011;57712;48.752;11.348;2023-09-30T13:11:24;12.05;;;3.35;;
70303;SDS011;57712;48.752;11.348;2023-09-30T13:13:50;11.45;;;3.72;;
70303;SDS011;57712;48.752;11.348;2023-09-30T13:16:17;10.63;;;4.00;;
70303;SDS011;57712;48.752;11.348;2023-09-30T13:18:44;10.73;;;3.85;;
70303;SDS011;57712;48.752;11.348;2023-09-30T13:21:10;14.60;;;4.60;;
70303;SDS011;57712;48.752;11.348;2023-09-30T13:23:40;12.07;;;4.15;;
70303;SDS011;57712;48.752;11.348;2023-09-30T13:26:08;11.90;;;4.53;;
70303;SDS011;57712;48.752;11.348;2023-09-30T13:28:35;11.07;;;3.40;;
70303;SDS011;57712;48.752;11.348;2023-09-30T13:31:01;12.57;;;4.30;;
70303;SDS011;57712;48.752;11.348;2023-09-30T13:33:29;10.63;;;4.32;;
70303;SDS011;57712;48.752;11.348;2023-09-30T13:35:56;11.63;;;4.50;;
70303;SDS011;57712;48.752;11.348;2023-09-30T13:38:23;9.63;;;3.90;;
70303;SDS011;57712;48.752;11.348;2023-09-30T13:40:50;11.70;;;3.80;;
70303;SDS011;57712;48.752;11.348;2023-09-30T13:43:17;10.43;;;3.92;;
70303;SDS011;57712;48.752;11.348;2023-09-30T13:45:43;13.30;;;4.70;;
70303;SDS011;57712;48.752;11.348;2023-09-30T13:48:10;11.93;;;4.10;;
70303;SDS011;57712;48.752;11.348;2023-09-30T13:50:38;10.80;;;3.97;;
70303;SDS011;57712;48.752;11.348;2023-09-30T13:53:04;10.87;;;3.93;;
70303;SDS011;57712;48.752;11.348;2023-09-30T13:55:31;10.80;;;4.50;;
70303;SDS011;57712;48.752;11.348;2023-09-30T13:57:58;10.77;;;4.63;;
70303;SDS011;57712;48.752;11.348;2023-09-30T14:00:25;11.38;;;4.57;;
70303;SDS011;57712;48.752;11.348;2023-09-30T14:02:52;10.95;;;4.25;;
70303;SDS011;57712;48.752;11.348;2023-09-30T14:05:19;13.60;;;4.50;;
70303;SDS011;57712;48.752;11.348;2023-09-30T14:07:46;9.57;;;3.90;;
70303;SDS011;57712;48.752;11.348;2023-09-30T14:10:14;11.93;;;4.65;;
70303;SDS011;57712;48.752;11.348;2023-09-30T14:12:41;11.00;;;4.00;;
70303;SDS011;57712;48.752;11.348;2023-09-30T14:15:09;11.52;;;4.93;;
70303;SDS011;57712;48.752;11.348;2023-09-30T14:17:36;11.57;;;4.67;;
70303;SDS011;57712;48.752;11.348;2023-09-30T14:20:04;12.38;;;4.63;;
70303;SDS011;57712;48.752;11.348;2023-09-30T14:22:32;12.25;;;4.43;;
70303;SDS011;57712;48.752;11.348;2023-09-30T14:25:00;12.90;;;4.80;;
70303;SDS011;57712;48.752;11.348;2023-09-30T14:27:27;11.95;;;4.85;;
70303;SDS011;57712;48.752;11.348;2023-09-30T14:29:54;14.57;;;4.10;;
70303;SDS011;57712;48.752;11.348;2023-09-30T14:32:21;9.13;;;3.50;;
70303;SDS011;57712;48.752;11.348;2023-09-30T14:34:49;12.27;;;4.38;;
70303;SDS011;57712;48.752;11.348;2023-09-30T14:37:16;12.95;;;4.35;;
70303;SDS011;57712;48.752;11.348;2023-09-30T14:39:43;12.57;;;3.70;;
70303;SDS011;57712;48.752;11.348;2023-09-30T14:42:10;12.03;;;4.13;;
70303;SDS011;57712;48.752;11.348;2023-09-30T14:44:39;10.80;;;4.15;;
70303;SDS011;57712;48.752;11.348;2023-09-30T14:47:06;11.20;;;4.80;;
70303;SDS011;57712;48.752;11.348;2023-09-30T14:49:32;10.50;;;3.70;;